createdAt,value
2019-03-23T00:00:43.965Z,25.52
2019-03-23T00:03:18.934Z,24.07
2019-03-23T00:05:52.885Z,24.55
2019-03-23T00:08:27.104Z,23.90
2019-03-23T00:11:03.556Z,27.70
2019-03-23T00:13:37.015Z,49.18
2019-03-23T00:16:10.865Z,51.95
2019-03-23T00:18:43.935Z,56.00
2019-03-23T00:21:17.211Z,41.63
2019-03-23T00:23:50.156Z,40.80
2019-03-23T00:26:23.335Z,32.88
2019-03-23T00:28:56.566Z,30.05
2019-03-23T00:31:29.666Z,65.37
2019-03-23T00:34:03.908Z,29.35
2019-03-23T00:36:41.512Z,26.75
2019-03-23T00:39:11.898Z,43.13
2019-03-23T00:41:47.256Z,28.87
2019-03-23T00:44:20.235Z,31.07
2019-03-23T00:46:53.775Z,34.55
2019-03-23T00:49:32.197Z,33.05
2019-03-23T00:52:06.705Z,36.50
2019-03-23T00:54:39.735Z,32.50
2019-03-23T00:57:12.948Z,28.65
2019-03-23T00:59:47.005Z,30.50
2019-03-23T01:02:20.185Z,31.93
2019-03-23T01:04:54.093Z,33.55
2019-03-23T01:07:27.114Z,28.62
2019-03-23T01:10:00.345Z,28.77
2019-03-23T01:12:33.605Z,28.67
2019-03-23T01:15:07.615Z,30.77
2019-03-23T01:17:40.850Z,31.25
2019-03-23T01:20:14.545Z,31.75
2019-03-23T01:22:47.435Z,24.57
2019-03-23T01:25:21.555Z,26.12
2019-03-23T01:27:54.905Z,33.02
2019-03-23T01:30:28.325Z,28.45
2019-03-23T01:33:01.505Z,25.23
2019-03-23T01:35:35.153Z,30.35
2019-03-23T01:38:08.270Z,31.45
2019-03-23T01:40:41.745Z,32.00
2019-03-23T01:43:15.445Z,37.93
2019-03-23T01:45:48.489Z,32.03
2019-03-23T01:48:21.685Z,34.13
2019-03-23T01:50:55.428Z,37.38
2019-03-23T01:53:29.555Z,30.10
2019-03-23T01:56:05.345Z,41.05
2019-03-23T01:58:39.908Z,31.73
2019-03-23T02:01:13.465Z,34.73
2019-03-23T02:03:46.905Z,29.50
2019-03-23T02:06:20.862Z,35.28
2019-03-23T02:08:54.045Z,34.75
2019-03-23T02:11:27.014Z,35.88
2019-03-23T02:14:00.396Z,32.85
2019-03-23T02:16:33.454Z,43.95
2019-03-23T02:19:06.955Z,44.45
2019-03-23T02:21:40.689Z,34.50
2019-03-23T02:24:16.485Z,35.83
2019-03-23T02:26:50.425Z,31.80
2019-03-23T02:29:23.955Z,35.85
2019-03-23T02:31:58.054Z,38.17
2019-03-23T02:34:32.820Z,33.30
2019-03-23T02:37:06.115Z,28.05
2019-03-23T02:39:39.324Z,25.45
2019-03-23T02:42:12.235Z,32.00
2019-03-23T02:44:45.293Z,30.57
2019-03-23T02:47:19.859Z,29.75
2019-03-23T02:49:54.485Z,28.57
2019-03-23T02:52:28.101Z,28.38
2019-03-23T02:55:01.415Z,28.25
2019-03-23T02:58:04.526Z,27.58
2019-03-23T03:00:46.386Z,27.75
2019-03-23T03:03:19.556Z,28.10
2019-03-23T03:05:54.898Z,31.68
2019-03-23T03:08:28.425Z,29.37
2019-03-23T03:11:02.785Z,27.82
2019-03-23T03:13:36.205Z,25.90
2019-03-23T03:16:09.496Z,27.35
2019-03-23T03:18:42.925Z,26.10
2019-03-23T03:21:16.198Z,25.62
2019-03-23T03:23:49.474Z,24.45
2019-03-23T03:26:22.786Z,24.05
2019-03-23T03:28:55.935Z,24.65
2019-03-23T03:31:29.395Z,26.52
2019-03-23T03:34:02.597Z,24.47
2019-03-23T03:36:35.745Z,25.50
2019-03-23T03:39:10.057Z,26.33
2019-03-23T03:41:44.260Z,31.75
2019-03-23T03:44:17.467Z,28.75
2019-03-23T03:46:50.535Z,27.13
2019-03-23T03:49:24.116Z,27.22
2019-03-23T03:51:57.240Z,27.93
2019-03-23T03:54:30.246Z,26.97
2019-03-23T03:57:03.380Z,24.67
2019-03-23T03:59:36.507Z,24.65
2019-03-23T04:02:10.096Z,24.65
2019-03-23T04:04:43.170Z,22.48
2019-03-23T04:07:16.778Z,25.77
2019-03-23T04:09:51.374Z,23.98
2019-03-23T04:12:24.857Z,23.77
2019-03-23T04:14:58.064Z,26.07
2019-03-23T04:17:32.803Z,27.98
2019-03-23T04:20:06.560Z,27.77
2019-03-23T04:22:40.156Z,27.20
2019-03-23T04:25:13.435Z,26.00
2019-03-23T04:27:46.778Z,24.80
2019-03-23T04:30:19.973Z,27.10
2019-03-23T04:32:53.245Z,25.17
2019-03-23T04:35:26.508Z,24.30
2019-03-23T04:38:00.185Z,23.45
2019-03-23T04:40:33.384Z,25.20
2019-03-23T04:43:07.364Z,23.42
2019-03-23T04:45:42.145Z,26.37
2019-03-23T04:48:15.526Z,25.90
2019-03-23T04:50:48.724Z,22.60
2019-03-23T04:53:21.905Z,23.85
2019-03-23T04:55:55.244Z,23.05
2019-03-23T04:58:28.355Z,23.85
2019-03-23T05:01:04.318Z,25.02
2019-03-23T05:03:37.515Z,23.25
2019-03-23T05:06:10.795Z,24.40
2019-03-23T05:08:43.975Z,22.80
2019-03-23T05:11:17.514Z,21.52
2019-03-23T05:13:51.035Z,21.30
2019-03-23T05:16:24.285Z,22.40
2019-03-23T05:18:57.515Z,21.15
2019-03-23T05:21:30.950Z,23.98
2019-03-23T05:24:04.063Z,21.80
2019-03-23T05:26:37.625Z,22.87
2019-03-23T05:29:10.778Z,19.62
2019-03-23T05:31:44.646Z,20.17
2019-03-23T05:34:18.926Z,19.00
2019-03-23T05:36:52.985Z,18.05
2019-03-23T05:39:28.608Z,20.97
2019-03-23T05:42:03.375Z,18.12
2019-03-23T05:44:37.036Z,18.60
2019-03-23T05:47:10.784Z,17.85
2019-03-23T05:49:44.178Z,21.33
2019-03-23T05:52:17.638Z,21.82
2019-03-23T05:54:50.865Z,20.02
2019-03-23T05:57:24.103Z,19.45
2019-03-23T05:59:57.585Z,20.12
2019-03-23T06:02:33.715Z,20.23
2019-03-23T06:05:08.480Z,19.30
2019-03-23T06:07:42.034Z,17.70
2019-03-23T06:10:15.597Z,21.80
2019-03-23T06:12:50.015Z,20.60
2019-03-23T06:15:23.563Z,19.30
2019-03-23T06:17:56.842Z,20.72
2019-03-23T06:20:30.254Z,23.10
2019-03-23T06:23:06.315Z,20.60
2019-03-23T06:25:39.659Z,19.45
2019-03-23T06:28:13.005Z,20.77
2019-03-23T06:30:46.485Z,20.12
2019-03-23T06:33:19.689Z,18.30
2019-03-23T06:35:53.425Z,21.42
2019-03-23T06:38:26.924Z,17.35
2019-03-23T06:40:59.945Z,19.48
2019-03-23T06:43:33.565Z,17.23
2019-03-23T06:46:07.005Z,19.52
2019-03-23T06:48:40.384Z,17.98
2019-03-23T06:51:13.485Z,19.02
2019-03-23T06:53:46.798Z,20.50
2019-03-23T06:56:20.092Z,20.27
2019-03-23T06:58:53.685Z,19.80
2019-03-23T07:01:26.905Z,19.98
2019-03-23T07:04:00.275Z,16.07
2019-03-23T07:06:33.370Z,16.57
2019-03-23T07:09:16.118Z,15.43
2019-03-23T07:11:44.215Z,18.48
2019-03-23T07:14:18.506Z,19.80
2019-03-23T07:16:51.745Z,17.45
2019-03-23T07:19:25.219Z,18.00
2019-03-23T07:21:58.634Z,17.30
2019-03-23T07:24:32.405Z,14.18
2019-03-23T07:27:06.135Z,13.35
2019-03-23T07:29:39.634Z,13.78
2019-03-23T07:32:12.870Z,16.30
2019-03-23T07:34:46.235Z,8.35
2019-03-23T07:37:19.365Z,9.18
2019-03-23T07:39:52.565Z,6.53
2019-03-23T07:42:25.635Z,6.28
2019-03-23T07:44:58.725Z,4.58
2019-03-23T07:47:31.766Z,3.77
2019-03-23T07:50:05.524Z,3.83
2019-03-23T07:52:38.595Z,4.30
2019-03-23T07:55:15.288Z,4.45
2019-03-23T07:57:49.274Z,9.40
2019-03-23T08:00:22.785Z,7.47
2019-03-23T08:02:56.004Z,7.10
2019-03-23T08:05:29.125Z,6.72
2019-03-23T08:08:02.138Z,7.35
2019-03-23T08:10:35.464Z,5.62
2019-03-23T08:13:08.768Z,3.67
2019-03-23T08:15:42.638Z,4.37
2019-03-23T08:18:17.315Z,8.95
2019-03-23T08:20:51.346Z,8.25
2019-03-23T08:23:24.465Z,3.77
2019-03-23T08:25:57.594Z,4.10
2019-03-23T08:28:32.410Z,3.87
2019-03-23T08:31:05.505Z,7.53
2019-03-23T08:33:38.877Z,6.55
2019-03-23T08:36:12.058Z,8.60
2019-03-23T08:38:45.214Z,9.50
2019-03-23T08:41:18.571Z,11.00
2019-03-23T08:43:51.535Z,10.03
2019-03-23T08:46:24.845Z,10.78
2019-03-23T08:48:58.828Z,9.50
2019-03-23T08:51:32.057Z,11.10
2019-03-23T08:54:05.295Z,12.35
2019-03-23T08:56:38.775Z,16.25
2019-03-23T08:59:11.978Z,12.85
2019-03-23T09:01:45.278Z,12.03
2019-03-23T09:04:18.588Z,13.38
2019-03-23T09:06:51.875Z,13.00
2019-03-23T09:09:25.234Z,12.73
2019-03-23T09:11:58.414Z,10.28
2019-03-23T09:14:31.545Z,10.40
2019-03-23T09:17:04.745Z,7.83
2019-03-23T09:19:38.125Z,10.38
2019-03-23T09:22:11.477Z,10.55
2019-03-23T09:24:44.876Z,10.00
2019-03-23T09:27:21.234Z,11.60
2019-03-23T09:29:57.074Z,11.83
2019-03-23T09:32:31.005Z,11.45
2019-03-23T09:35:04.308Z,13.03
2019-03-23T09:37:38.101Z,9.63
2019-03-23T09:40:15.084Z,7.97
2019-03-23T09:42:49.855Z,11.43
2019-03-23T09:45:24.305Z,27.30
2019-03-23T09:47:57.684Z,6.70
2019-03-23T09:50:30.875Z,5.85
2019-03-23T09:53:04.284Z,5.78
2019-03-23T09:55:38.220Z,5.08
2019-03-23T09:58:11.767Z,3.70
2019-03-23T10:04:02.216Z,4.53
2019-03-23T10:06:43.375Z,4.05
2019-03-23T10:10:21.969Z,5.95
2019-03-23T10:12:54.815Z,4.67
2019-03-23T10:15:28.260Z,3.05
2019-03-23T10:18:01.715Z,3.20
2019-03-23T10:20:34.966Z,3.30
2019-03-23T10:23:08.135Z,3.70
2019-03-23T10:25:42.764Z,4.17
2019-03-23T10:28:15.942Z,3.83
2019-03-23T10:30:49.165Z,4.55
2019-03-23T10:33:23.155Z,8.40
2019-03-23T10:35:56.404Z,9.08
2019-03-23T10:38:29.335Z,7.70
2019-03-23T10:41:24.824Z,8.35
2019-03-23T10:45:44.127Z,38.80
2019-03-23T10:47:10.814Z,12.65
2019-03-23T10:49:45.907Z,8.80
2019-03-23T10:52:19.164Z,15.50
2019-03-23T10:54:52.235Z,9.48
2019-03-23T11:09:05.702Z,9.03
2019-03-23T13:33:46.331Z,8.65
2019-03-23T13:36:25.124Z,15.03
2019-03-23T13:38:58.094Z,10.88
2019-03-23T13:41:30.664Z,6.83
2019-03-23T13:44:03.605Z,8.90
2019-03-23T13:46:39.694Z,5.37
2019-03-23T13:49:13.963Z,7.05
2019-03-23T13:51:47.233Z,7.28
2019-03-23T13:54:19.943Z,8.00
2019-03-23T13:56:53.414Z,8.13
2019-03-23T13:59:26.046Z,9.55
2019-03-23T14:01:58.764Z,8.73
2019-03-23T14:04:31.234Z,43.02
2019-03-23T14:07:03.894Z,19.23
2019-03-23T14:09:36.554Z,26.62
2019-03-23T14:12:09.214Z,35.88
2019-03-23T14:14:41.843Z,12.15
2019-03-23T14:17:14.487Z,11.45
2019-03-23T14:19:49.557Z,8.53
2019-03-23T14:22:23.816Z,14.15
2019-03-23T14:24:56.404Z,6.72
2019-03-23T14:27:29.614Z,32.78
2019-03-23T14:30:02.179Z,6.85
2019-03-23T14:32:34.623Z,7.47
2019-03-23T14:35:08.843Z,9.43
2019-03-23T14:37:41.644Z,10.63
2019-03-23T14:40:14.464Z,20.92
2019-03-23T14:42:47.063Z,7.78
2019-03-23T14:45:19.653Z,8.58
2019-03-23T14:47:52.174Z,22.37
2019-03-23T14:50:24.678Z,8.15
2019-03-23T14:52:57.244Z,8.65
2019-03-23T14:55:29.894Z,7.47
2019-03-23T14:58:02.714Z,6.62
2019-03-23T15:00:36.096Z,7.20
2019-03-23T15:03:08.624Z,6.58
2019-03-23T15:05:41.104Z,17.60
2019-03-23T15:08:13.557Z,13.80
2019-03-23T15:10:46.054Z,5.97
2019-03-23T15:13:18.784Z,34.85
2019-03-23T15:15:51.374Z,41.10
2019-03-23T15:18:24.074Z,18.85
2019-03-23T15:20:56.684Z,21.85
2019-03-23T15:23:29.214Z,32.25
2019-03-23T15:26:01.705Z,11.95
2019-03-23T15:28:34.604Z,32.10
2019-03-23T15:31:07.254Z,20.08
2019-03-23T15:33:39.704Z,40.65
2019-03-23T15:36:12.368Z,34.23
2019-03-23T15:38:45.254Z,46.80
2019-03-23T15:41:17.884Z,59.45
2019-03-23T15:43:50.374Z,87.37
2019-03-23T15:46:25.154Z,66.42
2019-03-23T15:48:59.536Z,14.40
2019-03-23T15:51:32.124Z,28.85
2019-03-23T15:54:05.334Z,42.33
2019-03-23T15:56:37.954Z,41.95
2019-03-23T15:59:10.774Z,95.62
2019-03-23T16:01:43.314Z,93.12
2019-03-23T16:04:22.593Z,83.35
2019-03-23T16:06:56.853Z,44.63
2019-03-23T16:09:29.704Z,51.63
2019-03-23T16:12:02.340Z,72.00
2019-03-23T16:14:34.892Z,60.10
2019-03-23T16:17:07.485Z,73.47
2019-03-23T16:19:40.275Z,102.02
2019-03-23T16:22:13.975Z,88.30
2019-03-23T16:24:46.863Z,61.70
2019-03-23T16:27:19.565Z,55.23
2019-03-23T16:29:52.093Z,52.13
2019-03-23T16:32:24.718Z,41.10
2019-03-23T16:34:57.495Z,39.10
2019-03-23T16:37:30.116Z,38.20
2019-03-23T16:40:02.845Z,30.97
2019-03-23T16:42:44.623Z,29.32
2019-03-23T16:45:11.335Z,27.48
2019-03-23T16:47:43.954Z,20.97
2019-03-23T16:50:16.385Z,22.62
2019-03-23T16:52:49.140Z,21.90
2019-03-23T16:55:21.656Z,19.52
2019-03-23T16:57:54.694Z,18.48
2019-03-23T17:00:46.405Z,20.30
2019-03-23T17:03:18.879Z,22.83
2019-03-23T17:05:51.344Z,25.65
2019-03-23T17:08:23.886Z,24.67
2019-03-23T17:10:57.293Z,22.07
2019-03-23T17:13:29.966Z,23.05
2019-03-23T17:16:02.747Z,19.20
2019-03-23T17:18:35.465Z,20.27
2019-03-23T17:21:07.984Z,16.25
2019-03-23T17:23:40.604Z,17.05
2019-03-23T17:26:13.185Z,17.48
2019-03-23T17:28:45.604Z,18.48
2019-03-23T17:31:20.825Z,21.12
2019-03-23T17:33:53.287Z,26.23
2019-03-23T17:36:25.876Z,26.45
2019-03-23T17:38:58.706Z,20.37
2019-03-23T17:41:32.415Z,18.87
2019-03-23T17:44:05.084Z,18.85
2019-03-23T17:46:37.645Z,22.70
2019-03-23T17:49:10.375Z,18.25
2019-03-23T17:51:42.928Z,17.50
2019-03-23T17:54:15.399Z,16.42
2019-03-23T17:56:47.942Z,17.73
2019-03-23T17:59:20.725Z,20.48
2019-03-23T18:01:53.275Z,26.65
2019-03-23T18:04:27.195Z,28.23
2019-03-23T18:06:59.807Z,49.20
2019-03-23T18:09:32.444Z,24.80
2019-03-23T18:12:05.055Z,26.07
2019-03-23T18:14:37.574Z,22.32
2019-03-23T18:17:10.325Z,21.17
2019-03-23T18:19:42.745Z,23.12
2019-03-23T18:22:15.377Z,24.92
2019-03-23T18:24:47.975Z,23.27
2019-03-23T18:27:21.284Z,24.15
2019-03-23T18:29:53.894Z,26.73
2019-03-23T18:32:26.424Z,27.82
2019-03-23T18:34:58.952Z,26.42
2019-03-23T18:37:31.585Z,31.68
2019-03-23T18:40:08.054Z,32.30
2019-03-23T18:42:40.854Z,28.50
2019-03-23T18:45:13.545Z,29.45
2019-03-23T18:47:46.165Z,25.50
2019-03-23T18:50:18.826Z,27.27
2019-03-23T18:52:51.365Z,26.25
2019-03-23T18:55:24.784Z,33.10
2019-03-23T18:57:57.952Z,29.12
2019-03-23T19:00:36.305Z,33.55
2019-03-23T19:03:09.245Z,40.28
2019-03-23T19:05:41.945Z,41.00
2019-03-23T19:08:14.435Z,37.08
2019-03-23T19:10:46.946Z,34.15
2019-03-23T19:13:19.504Z,33.28
2019-03-23T19:15:52.230Z,30.72
2019-03-23T19:18:24.844Z,31.85
2019-03-23T19:20:57.334Z,28.00
2019-03-23T19:23:29.922Z,31.55
2019-03-23T19:26:02.773Z,27.98
2019-03-23T19:28:35.387Z,29.37
2019-03-23T19:31:08.044Z,32.80
2019-03-23T19:33:41.025Z,38.60
2019-03-23T19:36:15.145Z,32.13
2019-03-23T19:38:47.806Z,33.75
2019-03-23T19:41:20.505Z,36.85
2019-03-23T19:43:53.136Z,33.78
2019-03-23T19:46:25.724Z,32.13
2019-03-23T19:51:55.443Z,28.20
2019-03-23T19:54:28.955Z,30.80
2019-03-23T19:57:01.694Z,31.12
2019-03-23T19:59:34.204Z,31.02
2019-03-23T20:02:07.069Z,34.60
2019-03-23T20:04:41.102Z,33.45
2019-03-23T20:07:13.704Z,38.42
2019-03-23T20:09:46.124Z,33.08
2019-03-23T20:12:20.505Z,47.33
2019-03-23T20:14:57.078Z,38.60
2019-03-23T20:17:30.284Z,37.60
2019-03-23T20:20:02.824Z,37.65
2019-03-23T20:22:35.524Z,40.17
2019-03-23T20:25:09.646Z,38.70
2019-03-23T20:27:42.185Z,38.08
2019-03-23T20:30:15.415Z,37.03
2019-03-23T20:32:48.047Z,39.67
2019-03-23T20:35:20.661Z,40.67
2019-03-23T20:37:53.695Z,38.00
2019-03-23T20:40:26.334Z,40.88
2019-03-23T20:42:58.924Z,43.17
2019-03-23T20:45:32.464Z,45.63
2019-03-23T20:48:05.344Z,46.13
2019-03-23T20:50:39.534Z,46.18
2019-03-23T20:53:13.956Z,43.92
2019-03-23T20:55:46.626Z,43.45
2019-03-23T20:58:20.175Z,65.08
2019-03-23T21:00:55.315Z,44.03
2019-03-23T21:03:27.875Z,47.08
2019-03-23T21:06:00.823Z,52.03
2019-03-23T21:08:34.235Z,52.65
2019-03-23T21:11:07.264Z,55.63
2019-03-23T21:13:40.046Z,55.08
2019-03-23T21:16:12.624Z,60.17
2019-03-23T21:18:45.454Z,52.10
2019-03-23T21:21:18.204Z,49.38
2019-03-23T21:23:52.177Z,49.08
2019-03-23T21:26:26.024Z,46.68
2019-03-23T21:28:58.754Z,44.18
2019-03-23T21:31:31.355Z,43.48
2019-03-23T21:34:03.970Z,43.38
2019-03-23T21:36:36.714Z,47.13
2019-03-23T21:39:09.424Z,51.92
2019-03-23T21:41:42.027Z,55.12
2019-03-23T21:44:14.754Z,58.05
2019-03-23T21:46:47.475Z,57.83
2019-03-23T21:49:20.376Z,56.30
2019-03-23T21:51:53.134Z,49.30
2019-03-23T21:54:26.003Z,54.03
2019-03-23T21:56:58.954Z,46.08
2019-03-23T21:59:32.456Z,68.75
2019-03-23T22:02:07.117Z,58.73
2019-03-23T22:04:40.662Z,57.53
2019-03-23T22:07:15.343Z,52.13
2019-03-23T22:09:48.285Z,63.85
2019-03-23T22:12:21.084Z,106.67
2019-03-23T22:14:53.744Z,53.92
2019-03-23T22:17:26.644Z,44.38
2019-03-23T22:19:59.534Z,45.70
2019-03-23T22:22:32.544Z,41.05
2019-03-23T22:25:05.534Z,39.88
2019-03-23T22:27:38.634Z,38.30
2019-03-23T22:30:12.667Z,36.73
2019-03-23T22:32:45.344Z,38.70
2019-03-23T22:35:18.206Z,48.55
2019-03-23T22:37:51.125Z,55.10
2019-03-23T22:40:23.607Z,102.40
2019-03-23T22:42:56.284Z,36.10
2019-03-23T22:45:29.063Z,86.90
2019-03-23T22:48:01.782Z,36.63
2019-03-23T22:50:34.404Z,30.90
2019-03-23T22:53:07.084Z,24.72
2019-03-23T22:55:39.693Z,25.10
2019-03-23T22:58:12.414Z,23.45
2019-03-23T23:00:46.257Z,24.80
2019-03-23T23:03:19.192Z,26.20
2019-03-23T23:05:52.274Z,38.95
2019-03-23T23:08:24.964Z,29.15
2019-03-23T23:10:57.663Z,40.17
2019-03-23T23:13:30.206Z,39.75
2019-03-23T23:16:03.312Z,30.85
2019-03-23T23:18:36.048Z,30.60
2019-03-23T23:21:08.774Z,44.98
2019-03-23T23:23:41.683Z,26.97
2019-03-23T23:26:15.032Z,30.02
2019-03-23T23:28:47.694Z,25.92
2019-03-23T23:31:20.434Z,24.30
2019-03-23T23:33:53.333Z,23.30
2019-03-23T23:36:26.023Z,28.67
2019-03-23T23:38:58.906Z,24.52
2019-03-23T23:41:31.793Z,25.82
2019-03-23T23:44:04.807Z,25.17
2019-03-23T23:46:37.423Z,30.23
2019-03-23T23:49:10.096Z,28.73
2019-03-23T23:51:50.233Z,25.52
2019-03-23T23:54:18.294Z,27.27
2019-03-23T23:56:52.220Z,33.00
2019-03-23T23:59:27.686Z,27.98
